Time;durP1;ratioP1;P1;durP2;ratioP2;P2;SDS_P1;SDS_P2;PMS_P1;PMS_P2;Temp;Humidity;BMP_temperature;BMP_pressure;BME280_temperature;BME280_humidity;BME280_pressure;Samples;Min_cycle;Max_cycle;Signal;HPM_P1;HPM_P2
2021/07/09 00:00:33;;;;;;;7.10;1.80;;;17.00;99.90;;;;;;10342837;28;20115;-63
2021/07/09 00:05:35;;;;;;;5.85;1.95;;;16.90;99.90;;;;;;10392490;28;20053;-63
2021/07/09 00:10:36;;;;;;;5.00;2.10;;;16.80;99.90;;;;;;10392904;28;20049;-63
2021/07/09 00:15:38;;;;;;;4.95;1.75;;;16.70;99.90;;;;;;10389932;28;20080;-63
2021/07/09 00:20:39;;;;;;;3.35;1.60;;;16.60;99.90;;;;;;10393332;28;20045;-62
2021/07/09 00:25:42;;;;;;;2.85;2.20;;;16.50;99.90;;;;;;10392577;28;20127;-62
2021/07/09 00:30:43;;;;;;;6.18;1.88;;;16.50;99.90;;;;;;10390363;28;20061;-62
2021/07/09 00:35:45;;;;;;;3.60;1.38;;;16.40;99.90;;;;;;10386313;28;20488;-63
2021/07/09 00:40:47;;;;;;;5.90;1.83;;;16.40;99.90;;;;;;10391416;28;20065;-62
2021/07/09 00:45:49;;;;;;;4.57;2.42;;;16.30;99.90;;;;;;10389178;28;20046;-62
2021/07/09 00:50:50;;;;;;;3.15;2.08;;;16.30;99.90;;;;;;10391869;28;20077;-63
2021/07/09 00:55:52;;;;;;;4.05;2.28;;;16.20;99.90;;;;;;10391709;28;20068;-62
2021/07/09 01:00:56;;;;;;;4.78;2.13;;;16.20;99.90;;;;;;10389314;28;20068;-63
2021/07/09 01:05:58;;;;;;;4.38;2.10;;;16.10;99.90;;;;;;10387682;28;20065;-63
2021/07/09 01:10:59;;;;;;;3.65;2.15;;;16.10;99.90;;;;;;10389351;28;20096;-63
2021/07/09 01:16:01;;;;;;;4.15;2.15;;;16.10;99.90;;;;;;10389881;28;20053;-63
2021/07/09 01:21:07;;;;;;;2.80;1.98;;;16.00;99.90;;;;;;10387942;28;20570;-63
2021/07/09 01:26:09;;;;;;;2.50;2.13;;;16.00;99.90;;;;;;10388086;28;20132;-63
2021/07/09 01:31:11;;;;;;;4.10;1.75;;;16.00;99.90;;;;;;10388224;28;20069;-63
2021/07/09 01:36:13;;;;;;;4.55;2.38;;;16.10;99.90;;;;;;10390745;28;20135;-62
2021/07/09 01:41:16;;;;;;;3.05;2.20;;;16.10;99.90;;;;;;10391382;28;20072;-63
2021/07/09 01:46:18;;;;;;;2.58;2.03;;;16.10;99.90;;;;;;10389063;28;20049;-62
2021/07/09 01:51:20;;;;;;;4.47;2.55;;;16.10;99.90;;;;;;10390162;28;20046;-62
2021/07/09 01:56:22;;;;;;;2.45;2.03;;;16.10;99.90;;;;;;10390358;28;20054;-62
2021/07/09 02:01:24;;;;;;;2.67;2.40;;;16.10;99.90;;;;;;10385320;28;20443;-62
2021/07/09 02:06:25;;;;;;;3.53;2.28;;;16.10;99.90;;;;;;10386324;28;20067;-62
2021/07/09 02:11:27;;;;;;;5.32;2.33;;;16.10;99.90;;;;;;10383709;28;20480;-63
2021/07/09 02:16:29;;;;;;;3.10;2.63;;;16.10;99.90;;;;;;10385551;28;20072;-63
2021/07/09 02:21:30;;;;;;;6.15;2.95;;;16.10;99.90;;;;;;10388837;28;20614;-63
2021/07/09 02:26:32;;;;;;;4.80;2.22;;;16.20;99.90;;;;;;10387213;28;20107;-63
2021/07/09 02:31:34;;;;;;;4.50;2.63;;;16.20;99.90;;;;;;10385194;28;20077;-64
2021/07/09 02:36:36;;;;;;;5.18;2.50;;;16.30;99.90;;;;;;10388450;28;20050;-63
2021/07/09 02:41:38;;;;;;;4.20;3.55;;;16.30;99.90;;;;;;10385548;28;20056;-63
2021/07/09 02:46:40;;;;;;;4.32;2.70;;;16.40;99.90;;;;;;10386294;28;20076;-63
2021/07/09 02:51:43;;;;;;;3.13;2.60;;;16.30;99.90;;;;;;10387431;28;20053;-63
2021/07/09 02:56:45;;;;;;;8.20;3.53;;;16.30;99.90;;;;;;10371194;28;20038;-63
2021/07/09 03:01:46;;;;;;;6.80;3.38;;;16.30;99.90;;;;;;10395593;28;20092;-63
2021/07/09 03:06:48;;;;;;;4.30;2.97;;;16.30;99.90;;;;;;10397417;28;20043;-63
2021/07/09 03:11:50;;;;;;;6.00;3.45;;;16.30;99.90;;;;;;10395578;28;20064;-63
2021/07/09 03:16:51;;;;;;;6.32;3.50;;;16.30;99.90;;;;;;10393866;28;20065;-63
2021/07/09 03:21:53;;;;;;;5.13;3.60;;;16.30;99.90;;;;;;10393178;28;20065;-63
2021/07/09 03:26:55;;;;;;;4.40;2.58;;;16.30;99.90;;;;;;10390287;28;20084;-60
2021/07/09 03:31:57;;;;;;;4.72;2.50;;;16.30;99.90;;;;;;10394272;28;20049;-60
2021/07/09 03:36:58;;;;;;;5.15;2.60;;;16.30;99.90;;;;;;10393143;28;20049;-60
2021/07/09 03:42:00;;;;;;;7.55;2.70;;;16.30;99.90;;;;;;10395147;28;20575;-60
2021/07/09 03:47:02;;;;;;;3.65;2.10;;;16.30;99.90;;;;;;10395882;28;20131;-60
2021/07/09 03:52:04;;;;;;;6.05;2.70;;;16.40;99.90;;;;;;10394551;28;20042;-60
2021/07/09 03:57:06;;;;;;;5.45;3.08;;;16.40;99.90;;;;;;10387860;28;20098;-60
2021/07/09 04:02:07;;;;;;;4.45;3.35;;;16.40;99.90;;;;;;10385504;28;20079;-61
2021/07/09 04:07:09;;;;;;;6.50;3.95;;;16.40;99.90;;;;;;10393396;28;20042;-62
2021/07/09 04:12:11;;;;;;;4.35;2.88;;;16.50;99.90;;;;;;10393033;28;20088;-60
2021/07/09 04:17:13;;;;;;;4.28;3.38;;;16.40;99.90;;;;;;10388721;28;20037;-61
2021/07/09 04:22:16;;;;;;;8.07;4.18;;;16.40;99.90;;;;;;10392357;28;20510;-60
2021/07/09 04:27:17;;;;;;;6.50;3.50;;;16.40;99.90;;;;;;10387425;28;20115;-60
2021/07/09 04:32:19;;;;;;;4.20;3.80;;;16.40;99.90;;;;;;10390691;28;20061;-60
2021/07/09 04:37:21;;;;;;;4.53;3.85;;;16.40;99.90;;;;;;10394041;28;20052;-60
2021/07/09 04:42:22;;;;;;;7.90;5.35;;;16.40;99.90;;;;;;10389915;28;20041;-61
2021/07/09 04:47:24;;;;;;;10.57;4.80;;;16.30;99.90;;;;;;10389192;28;20049;-61
2021/07/09 04:52:26;;;;;;;12.65;6.88;;;16.30;99.90;;;;;;10390769;28;20049;-60
2021/07/09 04:57:28;;;;;;;7.43;4.90;;;16.40;99.90;;;;;;10392327;28;20085;-61
2021/07/09 05:02:29;;;;;;;8.13;4.85;;;16.20;99.90;;;;;;10386651;28;20041;-61
2021/07/09 05:07:31;;;;;;;8.52;6.10;;;16.20;99.90;;;;;;10392963;28;20484;-61
2021/07/09 05:12:33;;;;;;;11.75;7.38;;;16.20;99.90;;;;;;10388312;28;20045;-61
2021/07/09 05:17:35;;;;;;;9.70;6.05;;;16.30;99.90;;;;;;10385285;28;20171;-61
2021/07/09 05:22:37;;;;;;;13.88;7.18;;;16.30;99.90;;;;;;10390495;28;20586;-61
2021/07/09 05:27:39;;;;;;;11.38;5.97;;;16.40;99.90;;;;;;10389974;28;20574;-61
2021/07/09 05:32:43;;;;;;;7.22;4.93;;;16.40;99.90;;;;;;10386611;28;20041;-60
2021/07/09 05:37:45;;;;;;;8.43;5.63;;;16.40;99.90;;;;;;10386084;28;20038;-61
2021/07/09 05:42:48;;;;;;;12.35;7.47;;;16.40;99.90;;;;;;10387820;28;20507;-60
2021/07/09 05:47:49;;;;;;;9.25;6.35;;;16.50;99.90;;;;;;10388753;28;20073;-61
2021/07/09 05:52:51;;;;;;;13.45;7.93;;;16.40;99.90;;;;;;10388663;28;20081;-61
2021/07/09 05:57:52;;;;;;;13.95;8.23;;;16.40;99.90;;;;;;10386369;28;20053;-61
2021/07/09 06:02:54;;;;;;;9.82;7.35;;;16.40;99.90;;;;;;10381989;28;20554;-62
2021/07/09 06:07:56;;;;;;;7.38;5.40;;;16.60;99.90;;;;;;10385331;28;20111;-61
2021/07/09 06:12:58;;;;;;;10.85;6.55;;;16.40;99.90;;;;;;10387627;28;20077;-61
2021/07/09 06:18:00;;;;;;;7.13;5.18;;;16.50;99.90;;;;;;10382873;28;20361;-62
2021/07/09 06:23:02;;;;;;;7.30;5.68;;;16.50;99.90;;;;;;10387440;28;20072;-61
2021/07/09 06:28:04;;;;;;;11.07;6.25;;;16.60;99.90;;;;;;10387930;28;20558;-62
2021/07/09 06:33:08;;;;;;;12.77;6.65;;;16.70;99.90;;;;;;10387012;28;20064;-62
2021/07/09 06:38:10;;;;;;;10.75;7.97;;;16.80;99.90;;;;;;10385200;28;20049;-62
2021/07/09 06:43:13;;;;;;;14.05;6.47;;;16.90;99.90;;;;;;10384781;28;20111;-63
2021/07/09 06:48:15;;;;;;;13.02;6.25;;;17.10;99.90;;;;;;10387541;28;20091;-62
2021/07/09 06:53:16;;;;;;;9.25;4.88;;;17.20;99.90;;;;;;10389475;28;20054;-60
2021/07/09 06:58:18;;;;;;;8.95;5.35;;;17.30;99.90;;;;;;10385845;28;20053;-62
2021/07/09 07:03:19;;;;;;;11.13;4.38;;;17.50;99.90;;;;;;10386686;28;20061;-60
2021/07/09 07:08:25;;;;;;;8.13;4.57;;;17.60;99.90;;;;;;10385358;28;20053;-61
2021/07/09 07:13:27;;;;;;;9.68;4.85;;;17.80;99.90;;;;;;10383246;28;20053;-61
2021/07/09 07:18:29;;;;;;;7.80;4.90;;;17.90;99.90;;;;;;10383799;28;20068;-60
2021/07/09 07:23:32;;;;;;;5.80;4.25;;;17.80;99.90;;;;;;10384437;28;20484;-61
2021/07/09 07:28:34;;;;;;;8.10;4.18;;;17.70;99.90;;;;;;10387052;28;20056;-62
2021/07/09 07:33:42;;;;;;;7.05;5.10;;;17.60;99.90;;;;;;10388662;28;20164;-61
2021/07/09 07:38:48;;;;;;;6.13;5.05;;;17.50;99.90;;;;;;10390862;28;20110;-60
2021/07/09 07:43:49;;;;;;;7.93;5.43;;;17.50;99.90;;;;;;10391445;28;20053;-60
2021/07/09 07:48:51;;;;;;;7.70;5.85;;;17.50;99.90;;;;;;10407308;28;20047;-60
2021/07/09 07:53:54;;;;;;;7.57;6.00;;;17.60;99.90;;;;;;10402040;28;20081;-61
2021/07/09 07:58:56;;;;;;;9.32;6.15;;;17.60;99.90;;;;;;10396612;28;20041;-61
2021/07/09 08:03:59;;;;;;;9.10;6.53;;;17.80;99.90;;;;;;10395444;28;20045;-61
2021/07/09 08:09:00;;;;;;;10.07;5.47;;;17.70;99.90;;;;;;10393184;28;20045;-61
2021/07/09 08:14:02;;;;;;;7.05;5.88;;;17.80;99.90;;;;;;10393124;28;20498;-60
2021/07/09 08:19:04;;;;;;;8.40;6.40;;;17.80;99.90;;;;;;10391917;28;20045;-62
2021/07/09 08:24:05;;;;;;;9.38;6.80;;;17.70;99.90;;;;;;10390192;28;20045;-61
2021/07/09 08:29:07;;;;;;;10.02;6.60;;;17.60;99.90;;;;;;10392421;28;20111;-61
2021/07/09 08:34:25;;;;;;;11.07;5.97;;;17.60;99.90;;;;;;10387601;28;20041;-61
2021/07/09 08:39:27;;;;;;;8.55;6.93;;;17.60;99.90;;;;;;10388512;28;20134;-61
2021/07/09 08:44:29;;;;;;;11.20;7.20;;;17.60;99.90;;;;;;10393980;28;20072;-61
2021/07/09 08:49:32;;;;;;;9.52;6.10;;;17.60;99.90;;;;;;10388481;28;20488;-61
2021/07/09 08:54:34;;;;;;;10.80;6.78;;;17.70;99.90;;;;;;10388587;28;20133;-61
2021/07/09 08:59:36;;;;;;;10.55;6.40;;;17.80;99.90;;;;;;10390047;28;20045;-61
2021/07/09 09:04:38;;;;;;;9.32;5.90;;;17.90;99.90;;;;;;10395896;28;20180;-61
2021/07/09 09:09:41;;;;;;;9.38;6.90;;;18.10;99.90;;;;;;10389075;28;20061;-60
2021/07/09 09:14:52;;;;;;;10.55;6.70;;;18.10;99.90;;;;;;10391461;28;20053;-60
2021/07/09 09:20:13;;;;;;;8.40;6.22;;;18.20;99.90;;;;;;10391971;28;20045;-61
2021/07/09 09:25:16;;;;;;;9.50;6.80;;;18.30;99.90;;;;;;10341334;28;20057;-61
2021/07/09 09:30:20;;;;;;;11.27;6.75;;;18.50;99.90;;;;;;10384918;28;20459;-61
2021/07/09 09:35:27;;;;;;;8.63;6.70;;;18.70;99.90;;;;;;10387998;28;20064;-61
2021/07/09 09:40:31;;;;;;;9.77;6.25;;;18.90;99.90;;;;;;10390302;28;20045;-61
2021/07/09 09:45:34;;;;;;;10.60;5.72;;;19.00;99.90;;;;;;10391618;28;20103;-59
2021/07/09 09:50:47;;;;;;;7.70;5.38;;;19.00;99.90;;;;;;10390097;28;20104;-60
2021/07/09 09:55:49;;;;;;;6.10;5.18;;;19.00;99.90;;;;;;10389515;28;20100;-60
2021/07/09 10:00:53;;;;;;;7.60;5.53;;;19.00;99.90;;;;;;10385790;28;20049;-61
2021/07/09 10:05:55;;;;;;;7.07;5.20;;;19.00;99.90;;;;;;10389138;28;20115;-61
2021/07/09 10:10:58;;;;;;;10.35;4.85;;;19.10;99.90;;;;;;10381830;28;20076;-60
2021/07/09 10:16:00;;;;;;;8.73;5.05;;;19.10;99.90;;;;;;10386445;28;20053;-62
2021/07/09 10:21:02;;;;;;;7.20;5.00;;;19.10;99.90;;;;;;10386453;28;20081;-61
2021/07/09 10:26:04;;;;;;;6.32;5.03;;;19.00;99.90;;;;;;10385500;28;20068;-61
2021/07/09 10:31:07;;;;;;;6.70;4.70;;;19.00;99.90;;;;;;10384024;28;20079;-62
2021/07/09 10:36:27;;;;;;;8.25;5.50;;;18.90;99.90;;;;;;10384720;28;20049;-61
2021/07/09 10:41:29;;;;;;;7.47;4.57;;;18.90;99.90;;;;;;10385942;28;20116;-59
2021/07/09 10:46:34;;;;;;;4.25;3.85;;;18.90;99.90;;;;;;10391043;28;20547;-61
2021/07/09 10:51:53;;;;;;;5.90;3.53;;;18.90;99.90;;;;;;10384456;28;20091;-60
2021/07/09 10:57:17;;;;;;;4.38;2.72;;;19.00;99.90;;;;;;10372301;28;20049;-61
2021/07/09 11:02:56;;;;;;;3.63;2.90;;;19.10;99.90;;;;;;10344154;28;20481;-61
2021/07/09 11:08:33;;;;;;;3.35;2.42;;;19.30;99.90;;;;;;10246924;28;20141;-60
2021/07/09 11:13:46;;;;;;;2.40;1.70;;;19.30;99.90;;;;;;10289545;28;20060;-61
2021/07/09 11:18:57;;;;;;;5.20;2.15;;;19.20;99.90;;;;;;10344605;28;20096;-60
2021/07/09 11:24:09;;;;;;;3.40;2.20;;;19.20;99.90;;;;;;10367386;28;20045;-62
2021/07/09 11:29:22;;;;;;;6.03;2.00;;;19.10;99.90;;;;;;10351958;28;20090;-62
2021/07/09 11:34:32;;;;;;;8.90;3.00;;;19.10;99.90;;;;;;10347959;28;20064;-60
2021/07/09 11:39:58;;;;;;;4.32;1.90;;;19.20;99.90;;;;;;10351095;28;20105;-61
2021/07/09 11:45:07;;;;;;;1.85;1.65;;;19.20;99.90;;;;;;10324952;28;20049;-61
2021/07/09 11:50:20;;;;;;;2.55;2.08;;;19.40;99.90;;;;;;10341832;28;20117;-62
2021/07/09 11:55:28;;;;;;;4.50;1.95;;;19.60;99.90;;;;;;10344742;28;20057;-60
2021/07/09 12:00:30;;;;;;;5.78;2.72;;;19.70;99.90;;;;;;10330419;28;20089;-61
2021/07/09 12:05:33;;;;;;;5.15;2.20;;;19.90;99.90;;;;;;10340697;28;20053;-62
2021/07/09 12:10:37;;;;;;;4.47;1.70;;;20.10;99.90;;;;;;10344448;28;20750;-60
2021/07/09 12:15:42;;;;;;;7.18;3.00;;;20.50;99.90;;;;;;10339820;28;20053;-61
2021/07/09 12:20:49;;;;;;;3.47;1.70;;;20.80;99.90;;;;;;10343177;28;20068;-61
2021/07/09 12:25:52;;;;;;;;;;;20.90;99.90;;;;;;10342417;28;20050;-61
2021/07/09 12:30:56;;;;;;;3.92;1.52;;;21.10;99.90;;;;;;10338096;28;19925;-61
2021/07/09 12:36:09;;;;;;;3.65;1.90;;;21.40;99.90;;;;;;10344080;28;20049;-61
2021/07/09 12:41:15;;;;;;;5.47;1.95;;;21.30;99.90;;;;;;10340769;28;20039;-61
2021/07/09 12:46:25;;;;;;;2.60;1.75;;;21.40;99.90;;;;;;10337729;28;20050;-61
2021/07/09 12:51:42;;;;;;;2.83;2.50;;;21.60;99.90;;;;;;10331845;28;20513;-62
2021/07/09 12:56:48;;;;;;;1.90;1.40;;;21.60;99.90;;;;;;10343133;28;20727;-60
2021/07/09 13:02:01;;;;;;;3.50;1.70;;;21.90;99.90;;;;;;10337318;28;20073;-62
2021/07/09 13:07:11;;;;;;;1.90;1.67;;;21.70;99.90;;;;;;10326196;28;20054;-61
2021/07/09 13:12:14;;;;;;;1.88;1.42;;;22.00;99.90;;;;;;10335598;28;20139;-60
2021/07/09 13:17:18;;;;;;;2.45;1.40;;;22.50;99.90;;;;;;10336283;28;20161;-61
2021/07/09 13:22:31;;;;;;;8.00;1.70;;;22.90;99.90;;;;;;10338231;28;20062;-61
2021/07/09 13:27:35;;;;;;;1.85;1.70;;;23.10;99.90;;;;;;10340546;28;20073;-62
2021/07/09 13:32:39;;;;;;;4.03;1.58;;;23.20;98.80;;;;;;10340376;28;20077;-62
2021/07/09 13:37:41;;;;;;;5.32;1.75;;;23.10;99.90;;;;;;10336712;28;20481;-62
2021/07/09 13:42:44;;;;;;;6.18;2.30;;;22.80;99.90;;;;;;10335855;28;20049;-62
2021/07/09 13:47:45;;;;;;;5.97;2.22;;;22.70;99.90;;;;;;10335357;28;20123;-61
2021/07/09 13:52:47;;;;;;;5.82;1.48;;;22.50;99.90;;;;;;10341460;28;20170;-61
2021/07/09 13:57:49;;;;;;;2.88;1.40;;;22.50;99.90;;;;;;10341423;28;20046;-62
2021/07/09 14:02:51;;;;;;;2.75;1.80;;;22.40;99.90;;;;;;10334871;28;20140;-62
2021/07/09 14:07:52;;;;;;;4.57;1.90;;;22.30;99.90;;;;;;10337584;28;20053;-62
2021/07/09 14:12:54;;;;;;;6.88;1.98;;;22.00;99.90;;;;;;10335799;28;20539;-62
2021/07/09 14:18:05;;;;;;;6.00;2.30;;;21.50;99.90;;;;;;10336919;28;20078;-62
2021/07/09 14:23:09;;;;;;;5.28;2.35;;;21.30;99.90;;;;;;10339644;28;20104;-60
2021/07/09 14:28:11;;;;;;;4.32;2.80;;;21.00;99.90;;;;;;10339387;28;20039;-60
2021/07/09 14:33:14;;;;;;;6.82;3.42;;;20.60;99.90;;;;;;10335449;28;20584;-61
2021/07/09 14:38:15;;;;;;;4.95;3.88;;;20.30;99.90;;;;;;10336793;28;20058;-61
2021/07/09 14:43:17;;;;;;;6.90;3.95;;;20.30;99.90;;;;;;10336821;28;20050;-62
2021/07/09 14:48:19;;;;;;;4.05;3.65;;;20.20;99.90;;;;;;10335806;28;20057;-61
2021/07/09 14:53:21;;;;;;;4.03;3.47;;;20.00;99.90;;;;;;10342605;28;20069;-61
2021/07/09 14:58:22;;;;;;;5.75;4.20;;;19.80;99.90;;;;;;10347902;28;20093;-61
2021/07/09 15:03:24;;;;;;;9.90;5.40;;;19.60;99.90;;;;;;10348497;28;20140;-60
2021/07/09 15:08:26;;;;;;;8.65;4.43;;;19.40;99.90;;;;;;10345673;28;20477;-60
2021/07/09 15:13:27;;;;;;;7.43;4.70;;;19.20;99.90;;;;;;10347052;28;20127;-61
2021/07/09 15:18:29;;;;;;;9.32;4.88;;;19.10;99.90;;;;;;10342749;28;20065;-59
2021/07/09 15:23:31;;;;;;;6.95;4.93;;;19.10;99.90;;;;;;10350357;28;20438;-60
2021/07/09 15:28:32;;;;;;;6.25;5.20;;;18.80;99.90;;;;;;10344688;28;20050;-61
2021/07/09 15:33:34;;;;;;;8.65;4.80;;;18.70;99.90;;;;;;10346294;28;20076;-60
2021/07/09 15:38:37;;;;;;;7.65;5.60;;;18.70;99.90;;;;;;10343420;28;20157;-61
2021/07/09 15:43:39;;;;;;;7.85;5.78;;;18.90;99.90;;;;;;10345670;28;20603;-62
2021/07/09 15:49:01;;;;;;;5.18;4.20;;;19.10;99.90;;;;;;10341990;28;20144;-62
2021/07/09 15:54:03;;;;;;;6.38;5.13;;;19.10;99.90;;;;;;10362532;28;20404;-61
2021/07/09 15:59:04;;;;;;;8.02;5.63;;;19.00;99.90;;;;;;10340068;28;20420;-60
2021/07/09 16:04:06;;;;;;;12.75;7.05;;;18.90;99.90;;;;;;10344672;28;20046;-60
2021/07/09 16:09:23;;;;;;;6.07;4.38;;;19.30;99.90;;;;;;10344818;28;20073;-61
2021/07/09 16:14:25;;;;;;;6.82;3.90;;;19.80;99.90;;;;;;10339785;28;20485;-61
2021/07/09 16:19:26;;;;;;;4.30;3.28;;;20.50;99.90;;;;;;10346082;28;20058;-60
2021/07/09 16:24:28;;;;;;;4.22;3.78;;;20.20;99.90;;;;;;10339215;28;20880;-60
2021/07/09 16:29:30;;;;;;;5.15;4.45;;;20.00;99.90;;;;;;10344621;28;20045;-61
2021/07/09 16:34:32;;;;;;;6.05;3.72;;;20.00;99.90;;;;;;10342884;28;20042;-61
2021/07/09 16:39:33;;;;;;;4.25;2.70;;;19.60;99.90;;;;;;10345844;28;20110;-61
2021/07/09 16:44:36;;;;;;;9.50;3.92;;;19.40;99.90;;;;;;10340755;28;20077;-61
2021/07/09 16:49:38;;;;;;;8.30;3.58;;;19.40;99.90;;;;;;10342959;28;20057;-61
2021/07/09 16:54:40;;;;;;;5.75;5.20;;;19.40;99.90;;;;;;10339473;28;20587;-62
2021/07/09 16:59:43;;;;;;;8.18;4.45;;;19.40;99.90;;;;;;10339973;28;20057;-61
2021/07/09 17:04:45;;;;;;;9.85;5.53;;;19.40;99.90;;;;;;10335293;28;20444;-61
2021/07/09 17:09:47;;;;;;;6.32;5.05;;;19.50;99.90;;;;;;10338170;28;21293;-61
2021/07/09 17:14:50;;;;;;;7.80;5.53;;;19.20;99.90;;;;;;10336380;28;20054;-61
2021/07/09 17:19:51;;;;;;;5.07;4.47;;;19.00;99.90;;;;;;10336138;28;20046;-61
2021/07/09 17:24:53;;;;;;;8.73;4.60;;;19.00;99.90;;;;;;10337400;28;20054;-61
2021/07/09 17:29:55;;;;;;;8.50;5.70;;;19.20;99.90;;;;;;10339183;28;20497;-61
2021/07/09 17:34:56;;;;;;;9.32;5.68;;;19.40;99.90;;;;;;10340352;28;20401;-61
2021/07/09 17:39:58;;;;;;;7.60;5.20;;;19.60;99.90;;;;;;10338446;28;20077;-61
2021/07/09 17:45:13;;;;;;;8.43;6.32;;;19.50;99.90;;;;;;10339237;28;20053;-61
2021/07/09 17:50:16;;;;;;;10.65;6.30;;;19.50;99.90;;;;;;10340034;28;20045;-61
2021/07/09 17:55:18;;;;;;;9.88;6.35;;;19.50;99.90;;;;;;10334093;28;20461;-61
2021/07/09 18:00:24;;;;;;;8.43;5.60;;;19.40;99.90;;;;;;10335363;28;20487;-61
2021/07/09 18:05:25;;;;;;;9.85;6.50;;;19.40;99.90;;;;;;10334553;28;20061;-61
2021/07/09 18:10:27;;;;;;;8.23;6.20;;;19.30;99.90;;;;;;10333081;28;20077;-60
2021/07/09 18:15:29;;;;;;;8.18;6.20;;;19.20;99.90;;;;;;10338370;28;20552;-60
2021/07/09 18:20:34;;;;;;;11.10;6.80;;;19.20;99.90;;;;;;10337584;28;20054;-61
2021/07/09 18:25:37;;;;;;;11.98;6.75;;;19.20;99.90;;;;;;10348403;28;20104;-60
2021/07/09 18:30:39;;;;;;;10.77;5.90;;;19.20;99.90;;;;;;10337764;28;20046;-61
2021/07/09 18:35:41;;;;;;;7.05;6.35;;;19.00;99.90;;;;;;10333527;28;20053;-60
2021/07/09 18:40:43;;;;;;;9.20;6.30;;;19.00;99.90;;;;;;10334328;28;20046;-60
2021/07/09 18:45:44;;;;;;;7.03;5.90;;;19.00;99.90;;;;;;10336529;28;20041;-61
2021/07/09 18:50:46;;;;;;;8.43;6.05;;;18.80;99.90;;;;;;10331393;28;20444;-61
2021/07/09 18:55:48;;;;;;;13.27;7.88;;;18.90;99.90;;;;;;10334517;28;20109;-62
2021/07/09 19:00:51;;;;;;;12.15;8.68;;;18.90;99.90;;;;;;10333046;28;20073;-61
2021/07/09 19:05:53;;;;;;;11.43;8.40;;;18.70;99.90;;;;;;10339601;28;20132;-60
2021/07/09 19:10:55;;;;;;;11.02;7.40;;;18.60;99.90;;;;;;10333576;28;20109;-60
2021/07/09 19:15:56;;;;;;;13.45;7.75;;;18.60;99.90;;;;;;10336973;28;20370;-60
2021/07/09 19:20:58;;;;;;;13.18;8.70;;;18.60;99.90;;;;;;10330389;28;20077;-62
2021/07/09 19:26:00;;;;;;;14.07;8.00;;;18.50;99.90;;;;;;10333739;28;20587;-61
2021/07/09 19:31:02;;;;;;;11.23;9.10;;;18.50;99.90;;;;;;10330438;28;20054;-61
2021/07/09 19:36:04;;;;;;;14.02;9.57;;;18.40;99.90;;;;;;10334094;28;20417;-60
2021/07/09 19:41:06;;;;;;;18.05;9.80;;;18.40;99.90;;;;;;10337794;28;20054;-61
2021/07/09 19:46:07;;;;;;;17.63;9.43;;;18.40;99.90;;;;;;10340451;28;20416;-61
2021/07/09 19:51:10;;;;;;;19.33;11.18;;;18.40;99.90;;;;;;10340050;28;20060;-61
2021/07/09 19:56:15;;;;;;;15.73;10.20;;;18.30;99.90;;;;;;10336232;28;20042;-60
2021/07/09 20:01:17;;;;;;;13.00;8.82;;;18.30;99.90;;;;;;10340043;28;20119;-64
2021/07/09 20:06:19;;;;;;;16.55;9.05;;;18.30;99.90;;;;;;10335886;28;20053;-66
2021/07/09 20:11:22;;;;;;;15.65;10.23;;;18.20;99.90;;;;;;10336753;28;20043;-69
2021/07/09 20:16:24;;;;;;;18.33;11.00;;;18.20;99.90;;;;;;10336214;28;20181;-67
2021/07/09 20:21:27;;;;;;;22.85;11.98;;;18.10;99.90;;;;;;10337506;28;20058;-67
2021/07/09 20:26:29;;;;;;;23.70;12.38;;;18.00;99.90;;;;;;10334494;28;20639;-67
2021/07/09 20:31:33;;;;;;;23.20;10.80;;;18.00;99.90;;;;;;10339158;28;20050;-66
2021/07/09 20:36:35;;;;;;;21.17;10.30;;;18.00;99.90;;;;;;10335616;28;20048;-67
2021/07/09 20:41:38;;;;;;;28.02;11.02;;;17.90;99.90;;;;;;10337837;28;20048;-67
2021/07/09 20:46:39;;;;;;;17.75;10.43;;;17.90;99.90;;;;;;10338254;28;20057;-68
2021/07/09 20:51:41;;;;;;;17.38;10.82;;;17.80;99.90;;;;;;10333882;28;20125;-67
2021/07/09 20:56:43;;;;;;;18.52;11.07;;;17.80;99.90;;;;;;10338338;28;20081;-66
2021/07/09 21:01:45;;;;;;;20.67;13.07;;;17.80;99.90;;;;;;10337905;28;20054;-67
2021/07/09 21:06:46;;;;;;;17.48;11.57;;;17.80;99.90;;;;;;10337675;28;20078;-66
2021/07/09 21:11:48;;;;;;;19.50;11.15;;;17.80;99.90;;;;;;10336473;28;20137;-67
2021/07/09 21:16:51;;;;;;;18.20;12.02;;;17.60;99.90;;;;;;10338946;28;20117;-67
2021/07/09 21:21:52;;;;;;;21.65;12.07;;;17.50;99.90;;;;;;10335691;28;20054;-67
2021/07/09 21:26:54;;;;;;;16.13;11.48;;;17.50;99.90;;;;;;10337748;28;20186;-67
2021/07/09 21:31:56;;;;;;;16.67;11.32;;;17.50;99.90;;;;;;10333541;28;20046;-66
2021/07/09 21:36:57;;;;;;;15.95;10.45;;;17.50;99.90;;;;;;10333027;28;20123;-67
2021/07/09 21:42:00;;;;;;;17.52;9.95;;;17.40;99.90;;;;;;10335686;28;20063;-66
2021/07/09 21:47:02;;;;;;;20.33;11.82;;;17.40;99.90;;;;;;10338956;28;20054;-65
2021/07/09 21:52:04;;;;;;;20.45;11.20;;;17.30;99.90;;;;;;10351128;28;20046;-66
2021/07/09 21:57:06;;;;;;;24.98;12.82;;;17.20;99.90;;;;;;10337316;28;20061;-65
2021/07/09 22:02:09;;;;;;;27.60;13.57;;;17.00;99.90;;;;;;10337017;28;20699;-65
2021/07/09 22:07:11;;;;;;;22.17;12.60;;;16.90;99.90;;;;;;10331818;28;20460;-66
2021/07/09 22:12:14;;;;;;;20.38;12.43;;;16.90;99.90;;;;;;10331077;28;20068;-66
2021/07/09 22:17:15;;;;;;;24.30;12.73;;;16.80;99.90;;;;;;10334357;28;20096;-66
2021/07/09 22:22:18;;;;;;;26.65;14.43;;;16.80;99.90;;;;;;10332319;28;20382;-66
2021/07/09 22:27:22;;;;;;;25.98;13.88;;;16.70;99.90;;;;;;10335696;28;20062;-67
2021/07/09 22:32:23;;;;;;;25.23;12.98;;;16.60;99.90;;;;;;10336183;28;20057;-66
2021/07/09 22:37:25;;;;;;;22.98;13.27;;;16.50;99.90;;;;;;10334538;28;20046;-67
2021/07/09 22:42:27;;;;;;;24.23;13.23;;;16.40;99.90;;;;;;10332402;28;20073;-66
2021/07/09 22:47:28;;;;;;;21.52;13.52;;;16.40;99.90;;;;;;10331394;28;20630;-67
2021/07/09 22:52:31;;;;;;;23.25;13.05;;;16.30;99.90;;;;;;10328139;28;20135;-67
2021/07/09 22:57:32;;;;;;;21.30;12.80;;;16.10;99.90;;;;;;10336039;28;20046;-66
2021/07/09 23:02:34;;;;;;;23.92;13.43;;;16.00;99.90;;;;;;10335424;28;20062;-66
2021/07/09 23:07:36;;;;;;;26.65;13.02;;;16.00;99.90;;;;;;10334029;28;20108;-66
2021/07/09 23:12:39;;;;;;;19.13;12.77;;;16.00;99.90;;;;;;10335434;28;20107;-66
2021/07/09 23:17:40;;;;;;;17.80;12.60;;;15.90;99.90;;;;;;10349991;28;20100;-66
2021/07/09 23:22:42;;;;;;;24.35;12.45;;;15.90;99.90;;;;;;10338237;28;20396;-66
2021/07/09 23:27:44;;;;;;;20.58;12.10;;;15.80;99.90;;;;;;10342453;28;20069;-65
2021/07/09 23:32:46;;;;;;;25.20;13.00;;;15.70;99.90;;;;;;10337323;28;20124;-66
2021/07/09 23:37:48;;;;;;;23.20;13.27;;;15.60;99.90;;;;;;10341349;28;20101;-65
2021/07/09 23:42:49;;;;;;;28.52;13.82;;;15.50;99.90;;;;;;10341938;28;20493;-66
2021/07/09 23:47:53;;;;;;;27.15;13.15;;;15.40;99.90;;;;;;10340462;28;20085;-66
2021/07/09 23:52:54;;;;;;;38.88;14.75;;;15.40;99.90;;;;;;10339682;28;20054;-66
2021/07/09 23:57:56;;;;;;;28.23;13.32;;;15.40;99.90;;;;;;10339974;28;20453;-66
